createdAt,value
2023-05-19T00:00:21.679Z,33.21
2023-05-19T00:01:21.676Z,33.19
2023-05-19T00:02:21.700Z,33.23
2023-05-19T00:03:21.753Z,33.19
2023-05-19T00:04:21.729Z,33.21
2023-05-19T00:05:21.795Z,33.20
2023-05-19T00:06:21.870Z,33.20
2023-05-19T00:07:21.846Z,33.20
2023-05-19T00:08:21.892Z,33.23
2023-05-19T00:09:21.903Z,33.20
2023-05-19T00:10:21.904Z,33.20
2023-05-19T00:11:21.906Z,33.21
2023-05-19T00:12:21.914Z,33.27
2023-05-19T00:13:21.975Z,33.23
2023-05-19T00:14:22.007Z,33.25
2023-05-19T00:15:22.058Z,33.24
2023-05-19T00:16:22.181Z,33.25
2023-05-19T00:17:22.164Z,33.25
2023-05-19T00:18:22.194Z,33.25
2023-05-19T00:19:22.415Z,33.25
2023-05-19T00:20:22.292Z,33.25
2023-05-19T00:21:22.357Z,33.27
2023-05-19T00:22:22.399Z,33.30
2023-05-19T00:23:22.456Z,33.28
2023-05-19T00:24:22.490Z,33.27
2023-05-19T00:25:22.551Z,33.25
2023-05-19T00:26:22.580Z,33.26
2023-05-19T00:27:22.632Z,33.29
2023-05-19T00:28:22.636Z,33.25
2023-05-19T00:29:22.667Z,33.27
2023-05-19T00:30:22.634Z,33.25
2023-05-19T00:31:22.667Z,33.27
2023-05-19T00:32:22.638Z,33.29
2023-05-19T00:33:22.619Z,33.29
2023-05-19T00:34:22.669Z,33.26
2023-05-19T00:35:22.615Z,33.29
2023-05-19T00:36:22.772Z,33.28
2023-05-19T00:37:22.604Z,33.30
2023-05-19T00:38:22.617Z,33.30
2023-05-19T00:39:22.605Z,33.32
2023-05-19T00:40:22.599Z,33.30
2023-05-19T00:41:22.617Z,33.33
2023-05-19T00:42:22.595Z,33.32
2023-05-19T00:43:22.600Z,33.34
2023-05-19T00:44:22.598Z,33.30
2023-05-19T00:45:22.586Z,33.31
2023-05-19T00:46:22.627Z,33.34
2023-05-19T00:47:22.590Z,33.35
2023-05-19T00:48:22.570Z,33.34
2023-05-19T00:49:22.571Z,33.35
2023-05-19T00:50:22.575Z,33.33
2023-05-19T00:51:22.574Z,33.35
2023-05-19T00:52:22.623Z,33.35
2023-05-19T00:53:22.671Z,33.34
2023-05-19T00:54:22.731Z,33.32
2023-05-19T00:55:22.772Z,33.35
2023-05-19T00:56:22.825Z,33.33
2023-05-19T00:57:22.839Z,33.35
2023-05-19T00:58:22.904Z,33.37
2023-05-19T00:59:22.944Z,33.36
2023-05-19T01:00:22.990Z,33.38
2023-05-19T01:01:23.083Z,33.40
2023-05-19T01:02:23.116Z,33.39
2023-05-19T01:03:23.087Z,33.40
2023-05-19T01:04:23.032Z,33.39
2023-05-19T01:05:23.048Z,33.39
2023-05-19T01:06:23.036Z,33.41
2023-05-19T01:07:23.074Z,33.46
2023-05-19T01:08:23.116Z,33.43
2023-05-19T01:09:23.183Z,33.45
2023-05-19T01:10:23.224Z,33.41
2023-05-19T01:11:23.294Z,33.43
2023-05-19T01:12:23.312Z,33.48
2023-05-19T01:13:23.405Z,33.44
2023-05-19T01:14:23.404Z,33.45
2023-05-19T01:15:23.469Z,33.50
2023-05-19T01:16:23.405Z,33.46
2023-05-19T01:17:23.460Z,33.48
2023-05-19T01:18:23.520Z,33.48
2023-05-19T01:19:23.468Z,33.49
2023-05-19T01:20:23.402Z,33.48
2023-05-19T01:21:23.391Z,33.48
2023-05-19T01:22:23.401Z,33.51
2023-05-19T01:23:23.407Z,33.51
2023-05-19T01:24:23.416Z,33.47
2023-05-19T01:25:23.460Z,33.50
2023-05-19T01:26:23.411Z,33.55
2023-05-19T01:27:23.425Z,33.50
2023-05-19T01:28:23.414Z,33.51
2023-05-19T01:29:23.424Z,33.49
2023-05-19T01:30:23.420Z,33.51
2023-05-19T01:31:23.449Z,33.52
2023-05-19T01:32:23.497Z,33.52
2023-05-19T01:33:23.502Z,33.53
2023-05-19T01:34:23.541Z,33.53
2023-05-19T01:35:23.509Z,33.53
2023-05-19T01:36:23.509Z,33.55
2023-05-19T01:37:23.504Z,33.54
2023-05-19T01:38:23.507Z,33.53
2023-05-19T01:39:23.525Z,33.54
2023-05-19T01:40:23.551Z,33.51
2023-05-19T01:41:23.565Z,33.53
2023-05-19T01:42:23.681Z,33.58
2023-05-19T01:43:23.586Z,33.62
2023-05-19T01:44:23.637Z,33.59
2023-05-19T01:45:23.672Z,33.64
2023-05-19T01:46:23.730Z,33.60
2023-05-19T01:47:23.716Z,33.62
2023-05-19T01:48:23.729Z,33.63
2023-05-19T01:49:23.800Z,33.66
2023-05-19T01:50:23.845Z,33.65
2023-05-19T01:51:23.908Z,33.65
2023-05-19T01:52:23.939Z,33.63
2023-05-19T01:53:24.002Z,33.62
2023-05-19T01:54:24.040Z,33.66
2023-05-19T01:55:24.049Z,33.68
2023-05-19T01:56:24.051Z,33.64
2023-05-19T01:57:24.043Z,33.67
2023-05-19T01:58:24.145Z,33.67
2023-05-19T01:59:24.061Z,33.64
2023-05-19T02:00:24.066Z,33.69
2023-05-19T02:01:24.083Z,33.67
2023-05-19T02:02:24.098Z,33.67
2023-05-19T02:03:24.103Z,33.65
2023-05-19T02:04:24.164Z,33.68
2023-05-19T02:05:24.095Z,33.67
2023-05-19T02:06:24.081Z,33.71
2023-05-19T02:07:24.129Z,33.70
2023-05-19T02:08:24.193Z,33.68
2023-05-19T02:09:24.209Z,33.69
2023-05-19T02:10:24.297Z,33.68
2023-05-19T02:11:24.492Z,33.71
2023-05-19T02:12:24.349Z,33.71
2023-05-19T02:13:24.369Z,33.70
2023-05-19T02:14:24.358Z,33.75
2023-05-19T02:15:24.363Z,33.73
2023-05-19T02:16:24.498Z,33.71
2023-05-19T02:17:24.375Z,33.76
2023-05-19T02:18:24.380Z,33.71
2023-05-19T02:19:24.483Z,33.72
2023-05-19T02:20:24.357Z,33.73
2023-05-19T02:21:24.375Z,33.76
2023-05-19T02:22:24.361Z,33.75
2023-05-19T02:23:24.388Z,33.73
2023-05-19T02:24:24.386Z,33.71
2023-05-19T02:25:24.416Z,33.73
2023-05-19T02:26:24.437Z,33.74
2023-05-19T02:27:24.421Z,33.79
2023-05-19T02:28:24.398Z,33.77
2023-05-19T02:29:24.501Z,33.82
2023-05-19T02:30:24.371Z,33.80
2023-05-19T02:31:24.426Z,33.80
2023-05-19T02:32:24.386Z,33.78
2023-05-19T02:33:24.419Z,33.76
2023-05-19T02:34:24.426Z,33.79
2023-05-19T02:35:24.415Z,33.78
2023-05-19T02:36:24.419Z,33.77
2023-05-19T02:37:24.418Z,33.83
2023-05-19T02:38:24.397Z,33.80
2023-05-19T02:39:24.427Z,33.76
2023-05-19T02:40:24.433Z,33.80
2023-05-19T02:41:24.473Z,33.80
2023-05-19T02:42:24.505Z,33.78
2023-05-19T02:43:24.555Z,33.81
2023-05-19T02:44:24.591Z,33.80
2023-05-19T02:45:24.695Z,33.79
2023-05-19T02:46:24.770Z,33.88
2023-05-19T02:47:24.807Z,33.84
2023-05-19T02:48:24.824Z,33.81
2023-05-19T02:49:24.839Z,33.88
2023-05-19T02:50:24.896Z,33.82
2023-05-19T02:51:24.942Z,33.82
2023-05-19T02:52:24.994Z,33.86
2023-05-19T02:53:25.034Z,33.83
2023-05-19T02:54:25.090Z,33.87
2023-05-19T02:55:25.159Z,33.86
2023-05-19T02:56:25.207Z,33.86
2023-05-19T02:57:25.255Z,33.88
2023-05-19T02:58:25.326Z,33.84
2023-05-19T02:59:25.791Z,33.85
2023-05-19T03:00:25.401Z,33.86
2023-05-19T03:01:25.506Z,33.88
2023-05-19T03:02:25.567Z,33.91
2023-05-19T03:03:25.666Z,33.86
2023-05-19T03:04:25.647Z,33.86
2023-05-19T03:05:25.704Z,33.88
2023-05-19T03:06:25.777Z,33.91
2023-05-19T03:07:25.811Z,33.88
2023-05-19T03:08:25.861Z,33.91
2023-05-19T03:09:25.861Z,33.89
2023-05-19T03:10:25.873Z,33.87
2023-05-19T03:11:25.888Z,33.90
2023-05-19T03:12:25.939Z,33.87
2023-05-19T03:13:25.977Z,33.86
2023-05-19T03:14:26.023Z,33.89
2023-05-19T03:15:26.091Z,33.89
2023-05-19T03:16:26.224Z,33.91
2023-05-19T03:17:26.264Z,33.93
2023-05-19T03:18:26.369Z,33.89
2023-05-19T03:19:26.447Z,33.90
2023-05-19T03:20:26.391Z,33.92
2023-05-19T03:21:26.464Z,33.94
2023-05-19T03:22:26.501Z,33.97
2023-05-19T03:23:26.622Z,33.96
2023-05-19T03:24:26.620Z,33.91
2023-05-19T03:25:26.664Z,33.93
2023-05-19T03:26:26.681Z,33.91
2023-05-19T03:27:26.658Z,33.97
2023-05-19T03:28:26.712Z,33.98
2023-05-19T03:29:26.727Z,33.92
2023-05-19T03:30:26.749Z,33.98
2023-05-19T03:31:26.869Z,33.94
2023-05-19T03:32:26.873Z,33.97
2023-05-19T03:33:26.992Z,33.99
2023-05-19T03:34:26.830Z,34.01
2023-05-19T03:35:26.846Z,33.98
2023-05-19T03:36:26.843Z,33.98
2023-05-19T03:37:26.836Z,34.00
2023-05-19T03:38:26.860Z,33.98
2023-05-19T03:39:26.849Z,33.99
2023-05-19T03:40:26.887Z,34.00
2023-05-19T03:41:27.177Z,33.99
2023-05-19T03:42:26.880Z,33.98
2023-05-19T03:43:26.905Z,33.97
2023-05-19T03:44:26.952Z,33.95
2023-05-19T03:45:26.997Z,34.01
2023-05-19T03:46:27.102Z,34.00
2023-05-19T03:47:27.128Z,34.01
2023-05-19T03:48:27.149Z,34.01
2023-05-19T03:49:27.183Z,33.99
2023-05-19T03:50:27.261Z,34.02
2023-05-19T03:51:27.319Z,33.99
2023-05-19T03:52:27.363Z,33.98
2023-05-19T03:53:27.428Z,34.00
2023-05-19T03:54:27.477Z,34.00
2023-05-19T03:55:27.534Z,34.02
2023-05-19T03:56:27.529Z,34.04
2023-05-19T03:57:27.536Z,34.02
2023-05-19T03:58:27.544Z,33.98
2023-05-19T03:59:27.560Z,33.98
2023-05-19T04:00:27.568Z,33.97
2023-05-19T04:01:27.572Z,33.99
2023-05-19T04:02:27.637Z,34.02
2023-05-19T04:03:27.621Z,34.02
2023-05-19T04:04:27.681Z,33.99
2023-05-19T04:05:27.807Z,34.03
2023-05-19T04:06:27.722Z,33.99
2023-05-19T04:07:27.741Z,33.96
2023-05-19T04:08:27.789Z,34.00
2023-05-19T04:09:27.689Z,33.96
2023-05-19T04:10:27.745Z,33.98
2023-05-19T04:11:27.801Z,33.96
2023-05-19T04:12:27.848Z,33.99
2023-05-19T04:13:27.893Z,33.94
2023-05-19T04:14:27.934Z,34.00
2023-05-19T04:15:27.984Z,33.98
2023-05-19T04:16:28.023Z,33.97
2023-05-19T04:17:28.012Z,33.95
2023-05-19T04:18:29.145Z,33.95
2023-05-19T04:19:28.152Z,33.96
2023-05-19T04:20:28.004Z,33.94
2023-05-19T04:21:28.091Z,33.93
2023-05-19T04:22:28.013Z,33.91
2023-05-19T04:23:28.011Z,33.90
2023-05-19T04:24:28.015Z,33.90
2023-05-19T04:25:28.040Z,33.93
2023-05-19T04:26:28.147Z,33.86
2023-05-19T04:27:28.105Z,33.86
2023-05-19T04:28:28.137Z,33.92
2023-05-19T04:29:28.326Z,33.92
2023-05-19T04:30:28.195Z,33.89
2023-05-19T04:31:28.275Z,33.83
2023-05-19T04:32:28.259Z,33.85
2023-05-19T04:33:28.253Z,33.91
2023-05-19T04:34:28.244Z,33.83
2023-05-19T04:35:28.255Z,33.81
2023-05-19T04:36:28.256Z,33.84
2023-05-19T04:37:28.248Z,33.82
2023-05-19T04:38:28.250Z,33.83
2023-05-19T04:39:28.300Z,33.80
2023-05-19T04:40:28.346Z,33.84
2023-05-19T04:41:28.400Z,33.82
2023-05-19T04:42:28.368Z,33.81
2023-05-19T04:43:28.368Z,33.77
2023-05-19T04:44:28.341Z,33.77
2023-05-19T04:45:28.484Z,33.75
2023-05-19T04:46:28.624Z,33.71
2023-05-19T04:47:28.499Z,33.67
2023-05-19T04:48:28.454Z,33.65
2023-05-19T04:49:28.481Z,33.61
2023-05-19T04:50:28.511Z,33.60
2023-05-19T04:51:30.459Z,33.50
2023-05-19T04:52:28.588Z,33.37
2023-05-19T04:53:28.670Z,33.27
2023-05-19T04:54:28.718Z,33.16
2023-05-19T04:55:28.778Z,33.06
2023-05-19T04:56:28.855Z,32.97
2023-05-19T04:57:28.857Z,32.90
2023-05-19T04:58:28.856Z,32.83
2023-05-19T04:59:28.880Z,32.67
2023-05-19T05:00:28.880Z,32.50
2023-05-19T05:01:28.929Z,32.53
2023-05-19T05:02:28.936Z,32.64
2023-05-19T05:03:28.950Z,32.72
2023-05-19T05:04:28.875Z,32.84
2023-05-19T05:05:28.892Z,32.88
2023-05-19T05:06:28.890Z,32.94
2023-05-19T05:07:29.760Z,33.02
2023-05-19T05:08:28.916Z,33.11
2023-05-19T05:09:28.886Z,33.12
2023-05-19T05:10:28.889Z,33.19
2023-05-19T05:11:28.891Z,33.22
2023-05-19T05:12:28.884Z,33.29
2023-05-19T05:13:28.883Z,33.32
2023-05-19T05:14:28.866Z,33.34
2023-05-19T05:15:28.883Z,33.36
2023-05-19T05:16:28.915Z,33.41
2023-05-19T05:17:28.906Z,33.39
2023-05-19T05:18:28.840Z,33.40
2023-05-19T05:19:28.945Z,33.43
2023-05-19T05:20:28.838Z,33.46
2023-05-19T05:21:28.806Z,33.43
2023-05-19T05:22:28.814Z,33.46
2023-05-19T05:23:28.802Z,33.47
2023-05-19T05:24:28.801Z,33.47
2023-05-19T05:25:28.801Z,33.49
2023-05-19T05:26:28.805Z,33.50
2023-05-19T05:27:28.798Z,33.51
2023-05-19T05:28:28.791Z,33.52
2023-05-19T05:29:28.755Z,33.52
2023-05-19T05:30:28.748Z,33.52
2023-05-19T05:31:28.746Z,33.49
2023-05-19T05:32:28.858Z,33.47
2023-05-19T05:33:28.786Z,33.42
2023-05-19T05:34:28.739Z,33.38
2023-05-19T05:35:28.747Z,33.31
2023-05-19T05:36:28.714Z,33.26
2023-05-19T05:37:28.714Z,33.16
2023-05-19T05:38:28.714Z,33.05
2023-05-19T05:39:28.709Z,33.00
2023-05-19T05:40:28.683Z,32.92
2023-05-19T05:41:28.700Z,32.92
2023-05-19T05:42:29.783Z,32.91
2023-05-19T05:43:28.675Z,32.94
2023-05-19T05:44:28.676Z,32.97
2023-05-19T05:45:28.651Z,32.97
2023-05-19T05:46:28.764Z,32.97
2023-05-19T05:47:28.680Z,33.00
2023-05-19T05:48:28.649Z,32.99
2023-05-19T05:49:28.637Z,33.00
2023-05-19T05:50:28.626Z,33.02
2023-05-19T05:51:28.667Z,33.05
2023-05-19T05:52:28.621Z,33.06
2023-05-19T05:53:28.609Z,33.04
2023-05-19T05:54:28.613Z,33.03
2023-05-19T05:55:28.592Z,33.02
2023-05-19T05:56:28.582Z,32.98
2023-05-19T05:57:28.582Z,32.92
2023-05-19T05:58:28.559Z,32.90
2023-05-19T05:59:28.547Z,32.90
2023-05-19T06:00:28.544Z,32.96
2023-05-19T06:01:28.539Z,32.96
2023-05-19T06:02:28.643Z,32.97
2023-05-19T06:03:28.604Z,33.02
2023-05-19T06:04:28.544Z,33.04
2023-05-19T06:05:28.571Z,33.06
2023-05-19T06:06:28.556Z,33.07
2023-05-19T06:07:28.568Z,33.06
2023-05-19T06:08:28.548Z,33.08
2023-05-19T06:09:28.568Z,33.11
2023-05-19T06:10:28.560Z,33.10
2023-05-19T06:11:28.598Z,33.08
2023-05-19T06:12:28.569Z,33.08
2023-05-19T06:13:28.579Z,33.12
2023-05-19T06:14:28.575Z,33.02
2023-05-19T06:15:28.690Z,33.00
2023-05-19T06:16:28.604Z,32.94
2023-05-19T06:17:28.657Z,32.87
2023-05-19T06:18:28.726Z,32.81
2023-05-19T06:19:28.758Z,32.75
2023-05-19T06:20:28.770Z,32.66
2023-05-19T06:21:28.785Z,32.54
2023-05-19T06:22:28.808Z,32.46
2023-05-19T06:23:28.913Z,32.45
2023-05-19T06:24:28.949Z,32.42
2023-05-19T06:25:29.004Z,32.44
2023-05-19T06:26:29.070Z,32.46
2023-05-19T06:27:29.108Z,32.51
2023-05-19T06:28:29.176Z,32.53
2023-05-19T06:29:29.254Z,32.58
2023-05-19T06:30:29.377Z,32.59
2023-05-19T06:31:29.444Z,32.63
2023-05-19T06:32:29.468Z,32.66
2023-05-19T06:33:29.491Z,32.67
2023-05-19T06:34:29.462Z,32.65
2023-05-19T06:35:29.467Z,32.66
2023-05-19T06:36:29.632Z,32.67
2023-05-19T06:37:29.546Z,32.66
2023-05-19T06:38:29.531Z,32.65
2023-05-19T06:39:29.633Z,32.64
2023-05-19T06:40:29.685Z,32.59
2023-05-19T06:41:29.581Z,32.57
2023-05-19T06:42:29.607Z,32.48
2023-05-19T06:43:29.591Z,32.42
2023-05-19T06:44:29.577Z,32.34
2023-05-19T06:45:29.592Z,32.32
2023-05-19T06:46:29.634Z,32.30
2023-05-19T06:47:29.613Z,32.29
2023-05-19T06:48:29.601Z,32.26
2023-05-19T06:49:29.592Z,32.23
2023-05-19T06:50:29.607Z,32.24
2023-05-19T06:51:29.587Z,32.22
2023-05-19T06:52:29.593Z,32.25
2023-05-19T06:53:29.660Z,32.28
2023-05-19T06:54:29.740Z,32.34
2023-05-19T06:55:29.671Z,32.41
2023-05-19T06:56:29.713Z,32.45
2023-05-19T06:57:29.760Z,32.50
2023-05-19T06:58:29.820Z,32.55
2023-05-19T06:59:29.890Z,32.59
2023-05-19T07:00:29.948Z,32.61
2023-05-19T07:01:30.040Z,32.65
2023-05-19T07:02:30.125Z,32.66
2023-05-19T07:03:30.151Z,32.66
2023-05-19T07:04:30.139Z,32.71
2023-05-19T07:05:30.180Z,32.67
2023-05-19T07:06:30.189Z,32.65
2023-05-19T07:07:30.203Z,32.66
2023-05-19T07:08:30.213Z,32.62
2023-05-19T07:09:30.218Z,32.58
2023-05-19T07:10:30.328Z,32.58
2023-05-19T07:11:30.237Z,32.55
2023-05-19T07:12:30.300Z,32.54
2023-05-19T07:13:30.380Z,32.52
2023-05-19T07:14:30.375Z,32.50
2023-05-19T07:15:30.432Z,32.49
2023-05-19T07:16:30.501Z,32.48
2023-05-19T07:17:30.547Z,32.46
2023-05-19T07:18:30.547Z,32.43
2023-05-19T07:19:30.707Z,32.42
2023-05-19T07:20:30.863Z,32.41
2023-05-19T07:21:30.653Z,32.42
2023-05-19T07:22:30.690Z,32.41
2023-05-19T07:23:30.727Z,32.41
2023-05-19T07:24:30.718Z,32.42
2023-05-19T07:25:30.722Z,32.41
2023-05-19T07:26:30.721Z,32.42
2023-05-19T07:27:30.715Z,32.47
2023-05-19T07:28:30.714Z,32.46
2023-05-19T07:29:30.823Z,32.44
2023-05-19T07:30:30.989Z,32.44
2023-05-19T07:31:30.794Z,32.45
2023-05-19T07:32:30.855Z,32.43
2023-05-19T07:33:30.861Z,32.39
2023-05-19T07:34:30.891Z,32.35
2023-05-19T07:35:30.883Z,32.27
2023-05-19T07:36:30.894Z,32.21
2023-05-19T07:37:30.901Z,32.20
2023-05-19T07:38:30.921Z,32.18
2023-05-19T07:39:30.959Z,32.16
2023-05-19T07:40:31.112Z,32.14
2023-05-19T07:41:31.069Z,32.11
2023-05-19T07:42:31.139Z,32.07
2023-05-19T07:43:31.186Z,32.00
2023-05-19T07:44:31.296Z,31.97
2023-05-19T07:45:31.413Z,32.00
2023-05-19T07:46:31.566Z,31.99
2023-05-19T07:47:31.462Z,31.96
2023-05-19T07:48:31.496Z,31.98
2023-05-19T07:49:31.596Z,31.96
2023-05-19T07:50:31.883Z,31.93
2023-05-19T07:51:31.681Z,31.91
2023-05-19T07:52:31.725Z,31.82
2023-05-19T07:53:31.797Z,31.73
2023-05-19T07:54:31.833Z,31.64
2023-05-19T07:55:31.889Z,31.64
2023-05-19T07:56:31.939Z,31.69
2023-05-19T07:57:32.004Z,31.60
2023-05-19T07:58:32.084Z,31.61
2023-05-19T07:59:32.077Z,31.58
2023-05-19T08:00:32.196Z,31.59
2023-05-19T08:01:32.097Z,31.57
2023-05-19T08:02:32.198Z,31.51
2023-05-19T08:03:32.360Z,31.45
2023-05-19T08:04:32.208Z,31.39
2023-05-19T08:05:32.210Z,31.37
2023-05-19T08:06:32.350Z,31.36
2023-05-19T08:07:32.312Z,31.30
2023-05-19T08:08:32.360Z,31.23
2023-05-19T08:09:32.368Z,31.20
2023-05-19T08:10:32.586Z,31.14
2023-05-19T08:11:32.499Z,31.07
2023-05-19T08:12:32.504Z,31.08
2023-05-19T08:13:32.498Z,30.95
2023-05-19T08:14:32.520Z,30.95
2023-05-19T08:15:32.737Z,30.89
2023-05-19T08:16:32.661Z,30.89
2023-05-19T08:17:32.577Z,30.96
2023-05-19T08:18:32.592Z,30.96
2023-05-19T08:19:32.597Z,30.90
2023-05-19T08:20:32.862Z,30.83
2023-05-19T08:21:32.670Z,30.72
2023-05-19T08:22:32.679Z,30.74
2023-05-19T08:23:32.694Z,30.89
2023-05-19T08:24:32.713Z,31.15
2023-05-19T08:25:32.753Z,31.37
2023-05-19T08:26:33.101Z,31.54
2023-05-19T08:27:32.838Z,31.72
2023-05-19T08:28:32.884Z,31.85
2023-05-19T08:29:32.954Z,31.99
2023-05-19T08:30:33.236Z,32.11
2023-05-19T08:31:33.137Z,32.20
2023-05-19T08:32:33.186Z,32.26
2023-05-19T08:33:33.187Z,32.35
2023-05-19T08:34:33.239Z,32.41
2023-05-19T08:35:33.276Z,32.44
2023-05-19T08:36:33.348Z,32.48
2023-05-19T08:37:34.253Z,32.52
2023-05-19T08:38:33.529Z,32.54
2023-05-19T08:39:33.499Z,32.57
2023-05-19T08:40:33.917Z,32.62
2023-05-19T08:41:33.636Z,32.63
2023-05-19T08:42:33.712Z,32.68
2023-05-19T08:43:33.740Z,32.70
2023-05-19T08:44:33.893Z,32.71
2023-05-19T08:45:34.117Z,32.74
2023-05-19T08:46:34.024Z,32.76
2023-05-19T08:47:33.925Z,32.77
2023-05-19T08:48:33.922Z,32.82
2023-05-19T08:49:33.947Z,32.81
2023-05-19T08:50:34.203Z,32.84
2023-05-19T08:51:34.014Z,32.84
2023-05-19T08:52:34.040Z,32.86
2023-05-19T08:53:34.733Z,32.88
2023-05-19T08:54:34.104Z,32.90
2023-05-19T08:55:34.626Z,32.89
2023-05-19T08:56:34.132Z,32.90
2023-05-19T08:57:34.197Z,32.92
2023-05-19T08:58:34.257Z,32.90
2023-05-19T08:59:34.239Z,32.94
2023-05-19T09:00:34.447Z,32.92
2023-05-19T09:01:34.521Z,32.91
2023-05-19T09:02:34.304Z,32.96
2023-05-19T09:03:34.416Z,32.93
2023-05-19T09:04:34.424Z,32.79
2023-05-19T09:05:34.754Z,32.59
2023-05-19T09:06:34.485Z,32.38
2023-05-19T09:07:34.494Z,32.19
2023-05-19T09:08:34.551Z,32.00
2023-05-19T09:09:34.733Z,31.87
2023-05-19T09:10:34.657Z,31.73
2023-05-19T09:11:34.724Z,31.67
2023-05-19T09:12:34.740Z,31.56
2023-05-19T09:13:34.817Z,31.46
2023-05-19T09:14:34.870Z,31.42
2023-05-19T09:15:35.220Z,31.37
2023-05-19T09:16:35.075Z,31.32
2023-05-19T09:17:35.072Z,31.26
2023-05-19T09:18:35.084Z,31.24
2023-05-19T09:19:35.213Z,31.22
2023-05-19T09:20:35.130Z,31.23
2023-05-19T09:21:35.155Z,31.23
2023-05-19T09:22:35.163Z,31.27
2023-05-19T09:23:35.159Z,31.27
2023-05-19T09:24:35.169Z,31.26
2023-05-19T09:25:35.455Z,31.24
2023-05-19T09:26:35.214Z,31.23
2023-05-19T09:27:35.209Z,31.22
2023-05-19T09:28:35.234Z,31.22
2023-05-19T09:29:35.261Z,31.24
2023-05-19T09:30:35.247Z,31.22
2023-05-19T09:31:35.329Z,31.20
2023-05-19T09:32:35.286Z,31.21
2023-05-19T09:33:35.285Z,31.21
2023-05-19T09:34:35.294Z,31.21
2023-05-19T09:35:35.439Z,31.23
2023-05-19T09:36:35.313Z,31.22
2023-05-19T09:37:35.285Z,31.17
2023-05-19T09:38:35.298Z,31.19
2023-05-19T09:39:35.322Z,31.22
2023-05-19T09:40:35.370Z,31.25
2023-05-19T09:41:35.434Z,31.27
2023-05-19T09:42:35.472Z,31.29
2023-05-19T09:43:35.550Z,31.23
2023-05-19T09:44:35.558Z,31.21
2023-05-19T09:45:35.556Z,31.12
2023-05-19T09:46:35.751Z,31.05
2023-05-19T09:47:35.580Z,30.99
2023-05-19T09:48:35.570Z,30.96
2023-05-19T09:49:35.567Z,30.94
2023-05-19T09:50:35.598Z,31.09
2023-05-19T09:51:35.598Z,31.34
2023-05-19T09:52:35.626Z,31.50
2023-05-19T09:53:35.625Z,31.67
2023-05-19T09:54:35.662Z,31.81
2023-05-19T09:55:35.691Z,31.95
2023-05-19T09:56:35.690Z,32.06
2023-05-19T09:57:35.774Z,32.15
2023-05-19T09:58:35.763Z,32.26
2023-05-19T09:59:35.831Z,32.33
2023-05-19T10:00:35.872Z,32.41
2023-05-19T10:01:35.969Z,32.48
2023-05-19T10:02:35.995Z,32.51
2023-05-19T10:03:35.967Z,32.57
2023-05-19T10:04:35.990Z,32.64
2023-05-19T10:05:36.164Z,32.68
2023-05-19T10:06:35.995Z,32.69
2023-05-19T10:07:36.051Z,32.69
2023-05-19T10:08:36.122Z,32.71
2023-05-19T10:09:36.164Z,32.73
2023-05-19T10:10:36.225Z,32.73
2023-05-19T10:11:36.293Z,32.76
2023-05-19T10:12:36.321Z,32.78
2023-05-19T10:13:36.387Z,32.77
2023-05-19T10:14:36.534Z,32.80
2023-05-19T10:15:46.689Z,32.82
2023-05-19T10:16:37.601Z,32.85
2023-05-19T10:17:36.497Z,32.85
2023-05-19T10:18:37.663Z,32.89
2023-05-19T10:19:36.516Z,32.89
2023-05-19T10:20:36.479Z,32.89
2023-05-19T10:21:36.466Z,32.91
2023-05-19T10:22:36.465Z,32.91
2023-05-19T10:23:36.446Z,32.94
2023-05-19T10:24:36.436Z,32.93
2023-05-19T10:25:36.442Z,32.95
2023-05-19T10:26:36.455Z,32.97
2023-05-19T10:27:36.416Z,32.99
2023-05-19T10:28:36.421Z,32.96
2023-05-19T10:29:36.479Z,32.99
2023-05-19T10:30:36.397Z,33.02
2023-05-19T10:31:36.431Z,32.98
2023-05-19T10:32:36.425Z,33.00
2023-05-19T10:33:36.377Z,32.99
2023-05-19T10:34:36.398Z,33.02
2023-05-19T10:35:36.612Z,33.03
2023-05-19T10:36:36.363Z,32.92
2023-05-19T10:37:36.354Z,32.75
2023-05-19T10:38:36.357Z,32.63
2023-05-19T10:39:36.333Z,32.53
2023-05-19T10:40:36.345Z,32.43
2023-05-19T10:41:36.352Z,32.36
2023-05-19T10:42:36.314Z,32.28
2023-05-19T10:43:36.308Z,32.22
2023-05-19T10:44:36.310Z,32.20
2023-05-19T10:45:36.386Z,32.13
2023-05-19T10:46:36.326Z,32.11
2023-05-19T10:47:36.301Z,32.09
2023-05-19T10:48:36.297Z,32.05
2023-05-19T10:49:36.293Z,32.04
2023-05-19T10:50:36.266Z,31.97
2023-05-19T10:51:36.265Z,31.94
2023-05-19T10:52:36.265Z,31.92
2023-05-19T10:53:36.247Z,31.91
2023-05-19T10:54:36.242Z,31.88
2023-05-19T10:55:36.238Z,31.83
2023-05-19T10:56:36.436Z,31.80
2023-05-19T10:57:36.243Z,31.76
2023-05-19T10:58:36.244Z,31.73
2023-05-19T10:59:36.210Z,31.71
2023-05-19T11:00:36.216Z,31.67
2023-05-19T11:01:36.291Z,31.67
2023-05-19T11:02:36.355Z,31.68
2023-05-19T11:03:36.310Z,31.66
2023-05-19T11:04:36.325Z,31.63
2023-05-19T11:05:36.387Z,31.65
2023-05-19T11:06:36.415Z,31.62
2023-05-19T11:07:36.425Z,31.62
2023-05-19T11:08:36.403Z,31.58
2023-05-19T11:09:40.573Z,31.59
2023-05-19T11:10:36.422Z,31.54
2023-05-19T11:11:36.392Z,31.54
2023-05-19T11:12:36.404Z,31.54
2023-05-19T11:13:36.716Z,31.52
2023-05-19T11:14:36.383Z,31.52
2023-05-19T11:15:36.393Z,31.49
2023-05-19T11:16:36.422Z,31.47
2023-05-19T11:17:36.376Z,31.51
2023-05-19T11:18:36.352Z,31.74
2023-05-19T11:19:36.356Z,31.87
2023-05-19T11:20:36.419Z,32.03
2023-05-19T11:21:36.381Z,32.16
2023-05-19T11:22:36.330Z,32.27
2023-05-19T11:23:36.339Z,32.36
2023-05-19T11:24:36.341Z,32.49
2023-05-19T11:25:36.300Z,32.52
2023-05-19T11:26:36.308Z,32.58
2023-05-19T11:27:36.316Z,32.66
2023-05-19T11:28:36.289Z,32.71
2023-05-19T11:29:36.277Z,32.77
2023-05-19T11:30:36.270Z,32.78
2023-05-19T11:31:36.337Z,32.84
2023-05-19T11:32:36.383Z,32.84
2023-05-19T11:33:36.339Z,32.84
2023-05-19T11:34:36.320Z,32.87
2023-05-19T11:35:36.648Z,32.88
2023-05-19T11:36:36.445Z,32.89
2023-05-19T11:37:36.587Z,32.90
2023-05-19T11:38:36.573Z,32.92
2023-05-19T11:39:36.562Z,32.92
2023-05-19T11:40:36.582Z,32.93
2023-05-19T11:41:37.336Z,32.95
2023-05-19T11:42:36.652Z,32.99
2023-05-19T11:43:36.676Z,33.00
2023-05-19T11:44:36.714Z,32.98
2023-05-19T11:45:36.848Z,33.04
2023-05-19T11:46:36.877Z,33.06
2023-05-19T11:47:50.923Z,33.07
2023-05-19T11:48:37.955Z,33.08
2023-05-19T11:49:36.963Z,33.11
2023-05-19T11:50:36.865Z,33.12
2023-05-19T11:51:36.852Z,33.11
2023-05-19T11:52:36.865Z,33.13
2023-05-19T11:53:36.862Z,33.15
2023-05-19T11:54:36.828Z,33.15
2023-05-19T11:55:36.843Z,33.19
2023-05-19T11:56:36.821Z,33.20
2023-05-19T11:57:36.820Z,33.20
2023-05-19T11:58:36.819Z,33.23
2023-05-19T11:59:36.827Z,33.24
2023-05-19T12:00:36.793Z,33.26
2023-05-19T12:01:36.809Z,33.28
2023-05-19T12:02:36.838Z,33.15
2023-05-19T12:03:36.945Z,33.07
2023-05-19T12:04:36.776Z,32.97
2023-05-19T12:05:40.827Z,32.86
2023-05-19T12:06:37.896Z,32.76
2023-05-19T12:07:36.750Z,32.70
2023-05-19T12:08:36.745Z,32.67
2023-05-19T12:09:36.751Z,32.59
2023-05-19T12:10:36.746Z,32.56
2023-05-19T12:11:36.726Z,32.50
2023-05-19T12:12:36.728Z,32.53
2023-05-19T12:13:36.721Z,32.52
2023-05-19T12:14:36.711Z,32.48
2023-05-19T12:15:36.749Z,32.45
2023-05-19T12:16:36.770Z,32.43
2023-05-19T12:17:36.765Z,32.40
2023-05-19T12:18:36.673Z,32.34
2023-05-19T12:19:36.672Z,32.37
2023-05-19T12:20:36.672Z,32.41
2023-05-19T12:21:36.704Z,32.44
2023-05-19T12:22:36.653Z,32.34
2023-05-19T12:23:36.701Z,32.33
2023-05-19T12:24:36.735Z,32.37
2023-05-19T12:25:36.900Z,32.43
2023-05-19T12:26:36.766Z,32.38
2023-05-19T12:27:36.792Z,32.41
2023-05-19T12:28:36.803Z,32.41
2023-05-19T12:29:36.823Z,32.39
2023-05-19T12:30:37.013Z,32.37
2023-05-19T12:31:36.854Z,32.41
2023-05-19T12:32:36.883Z,32.41
2023-05-19T12:33:36.868Z,32.46
2023-05-19T12:34:36.911Z,32.47
2023-05-19T12:35:36.980Z,32.45
2023-05-19T12:36:37.006Z,32.49
2023-05-19T12:37:37.017Z,32.45
2023-05-19T12:38:37.010Z,32.47
2023-05-19T12:39:37.010Z,32.46
2023-05-19T12:40:37.319Z,32.43
2023-05-19T12:41:37.002Z,32.52
2023-05-19T12:42:37.009Z,32.47
2023-05-19T12:43:37.011Z,32.49
2023-05-19T12:44:37.035Z,32.49
2023-05-19T12:45:37.367Z,32.51
2023-05-19T12:46:37.127Z,32.50
2023-05-19T12:47:37.251Z,32.56
2023-05-19T12:48:37.244Z,32.52
2023-05-19T12:49:37.259Z,32.57
2023-05-19T12:50:37.387Z,32.55
2023-05-19T12:51:37.264Z,32.61
2023-05-19T12:52:37.253Z,32.58